Terminal Aerodrome Forecast
Issued by NWS

Home | Current Version | Previous Version | Text Only | Print | Product List | Glossary On
Versions: 1 2 3 4 5 6 7 8 9 10 11 12 13 14 15 16 17 18 19 20 21 22 23 24 25 26 27 28 29 30 31 32 33 34 35 36 37 38 39 40 41 42
000
FTAK31 PANC 102343
TAFAEN
TAF
PAEN 102343Z 1100/1124 02012G20KT P6SM BKN045
      TEMPO 1100/1103 01012KT
     FM110300 02015G25KT 6SM -RA BKN025
     FM110700 03020G28KT P6SM SCT035 BKN050
     FM111600 16016G25KT P6SM -SHRA SCT025 BKN035
     FM112200 13007KT P6SM SCT060 BKN100=

USA.gov is the U.S. government's official web portal to all federal, state and local government web resources and services.